createdAt,value
2018-08-27T00:00:32.918Z,27.68
2018-08-27T00:01:11.277Z,27.70
2018-08-27T00:01:49.682Z,27.70
2018-08-27T00:02:28.148Z,27.72
2018-08-27T00:03:06.744Z,27.73
2018-08-27T00:03:45.606Z,27.74
2018-08-27T00:04:24.455Z,27.77
2018-08-27T00:05:03.147Z,27.78
2018-08-27T00:05:41.678Z,27.81
2018-08-27T00:06:20.171Z,27.83
2018-08-27T00:06:58.677Z,27.84
2018-08-27T00:07:37.191Z,27.85
2018-08-27T00:08:16.071Z,27.87
2018-08-27T00:08:54.684Z,27.87
2018-08-27T00:09:33.210Z,27.90
2018-08-27T00:10:11.815Z,27.90
2018-08-27T00:10:50.364Z,27.92
2018-08-27T00:11:28.951Z,27.94
2018-08-27T00:12:07.511Z,27.96
2018-08-27T00:12:46.196Z,27.97
2018-08-27T00:13:24.604Z,27.99
2018-08-27T00:14:03.206Z,28.01
2018-08-27T00:14:42.372Z,28.02
2018-08-27T00:15:20.987Z,28.04
2018-08-27T00:15:59.460Z,28.05
2018-08-27T00:16:38.209Z,28.08
2018-08-27T00:17:17.077Z,28.10
2018-08-27T00:17:55.716Z,28.12
2018-08-27T00:18:34.236Z,28.14
2018-08-27T00:19:12.788Z,28.15
2018-08-27T00:19:51.951Z,28.19
2018-08-27T00:20:30.537Z,28.21
2018-08-27T00:21:09.715Z,28.22
2018-08-27T00:21:48.851Z,28.25
2018-08-27T00:22:27.413Z,28.27
2018-08-27T00:23:06.861Z,28.28
2018-08-27T00:23:45.869Z,28.29
2018-08-27T00:24:24.370Z,28.32
2018-08-27T00:25:03.000Z,28.33
2018-08-27T00:25:41.476Z,28.35
2018-08-27T00:26:21.758Z,28.36
2018-08-27T00:27:00.466Z,28.39
2018-08-27T00:27:39.042Z,28.41
2018-08-27T00:28:17.651Z,28.43
2018-08-27T00:28:56.297Z,28.46
2018-08-27T00:29:34.892Z,28.48
2018-08-27T00:30:16.575Z,28.51
2018-08-27T00:30:55.451Z,28.54
2018-08-27T00:31:33.922Z,28.58
2018-08-27T00:32:12.689Z,28.59
2018-08-27T00:32:51.458Z,28.60
2018-08-27T00:33:31.354Z,28.63
2018-08-27T00:34:10.252Z,28.66
2018-08-27T00:34:48.983Z,28.69
2018-08-27T00:35:27.674Z,28.71
2018-08-27T00:36:06.462Z,28.74
2018-08-27T00:36:45.058Z,28.75
2018-08-27T00:37:23.619Z,28.78
2018-08-27T00:38:02.156Z,28.81
2018-08-27T00:38:40.704Z,28.82
2018-08-27T00:39:20.472Z,28.85
2018-08-27T00:39:58.865Z,28.88
2018-08-27T00:40:37.137Z,28.90
2018-08-27T00:41:15.311Z,28.92
2018-08-27T00:41:53.386Z,28.94
2018-08-27T00:42:31.329Z,28.96
2018-08-27T00:43:09.310Z,28.98
2018-08-27T00:43:47.469Z,29.00
2018-08-27T00:44:25.694Z,29.01
2018-08-27T00:45:03.604Z,29.04
2018-08-27T00:45:41.569Z,29.04
2018-08-27T00:46:19.483Z,29.07
2018-08-27T00:46:57.766Z,29.07
2018-08-27T00:47:35.681Z,29.09
2018-08-27T00:48:13.621Z,29.09
2018-08-27T00:48:51.550Z,29.11
2018-08-27T00:49:29.447Z,29.11
2018-08-27T00:50:07.412Z,29.11
2018-08-27T00:50:45.312Z,29.11
2018-08-27T00:51:23.177Z,29.13
2018-08-27T00:52:01.258Z,29.15
2018-08-27T00:52:40.300Z,29.16
2018-08-27T00:53:18.203Z,29.18
2018-08-27T00:53:56.280Z,29.18
2018-08-27T00:54:34.209Z,29.19
2018-08-27T00:55:12.125Z,29.20
2018-08-27T00:55:50.078Z,29.20
2018-08-27T00:56:28.020Z,29.21
2018-08-27T00:57:05.844Z,29.23
2018-08-27T00:57:43.777Z,29.23
2018-08-27T00:58:21.664Z,29.24
2018-08-27T00:58:59.596Z,29.26
2018-08-27T00:59:37.527Z,29.27
2018-08-27T01:00:16.551Z,29.30
2018-08-27T01:00:54.428Z,29.30
2018-08-27T01:01:32.883Z,29.31
2018-08-27T01:02:10.844Z,29.34
2018-08-27T01:02:48.734Z,29.34
2018-08-27T01:03:27.477Z,29.36
2018-08-27T01:04:05.426Z,29.38
2018-08-27T01:04:43.419Z,29.39
2018-08-27T01:05:22.282Z,29.42
2018-08-27T01:06:00.234Z,29.44
2018-08-27T01:06:38.226Z,29.45
2018-08-27T01:07:16.104Z,29.46
2018-08-27T01:07:54.628Z,29.47
2018-08-27T01:08:33.750Z,29.48
2018-08-27T01:09:12.194Z,29.49
2018-08-27T01:09:50.223Z,29.51
2018-08-27T01:10:29.087Z,29.53
2018-08-27T01:11:06.981Z,29.54
2018-08-27T01:11:44.925Z,29.56
2018-08-27T01:12:22.972Z,29.57
2018-08-27T01:13:01.882Z,29.56
2018-08-27T01:13:39.913Z,29.62
2018-08-27T01:14:17.892Z,29.64
2018-08-27T01:14:55.819Z,29.65
2018-08-27T01:15:33.808Z,29.67
2018-08-27T01:16:11.696Z,29.69
2018-08-27T01:16:49.615Z,29.71
2018-08-27T01:17:27.519Z,29.74
2018-08-27T01:18:05.419Z,29.76
2018-08-27T01:18:43.331Z,29.79
2018-08-27T01:19:21.408Z,29.81
2018-08-27T01:19:59.581Z,29.83
2018-08-27T01:20:37.563Z,29.85
2018-08-27T01:21:15.625Z,29.83
2018-08-27T01:21:53.663Z,29.89
2018-08-27T01:22:31.577Z,29.91
2018-08-27T01:23:09.546Z,29.93
2018-08-27T01:23:47.693Z,29.94
2018-08-27T01:24:26.683Z,29.96
2018-08-27T01:25:04.675Z,29.99
2018-08-27T01:25:42.583Z,30.02
2018-08-27T01:26:20.497Z,30.03
2018-08-27T01:26:58.427Z,30.05
2018-08-27T01:27:36.549Z,30.07
2018-08-27T01:28:14.622Z,30.09
2018-08-27T01:28:52.787Z,30.11
2018-08-27T01:29:33.712Z,30.13
2018-08-27T01:30:11.676Z,30.17
2018-08-27T01:30:49.529Z,30.21
2018-08-27T01:31:27.506Z,30.23
2018-08-27T01:32:09.651Z,30.26
2018-08-27T01:32:47.600Z,30.30
2018-08-27T01:33:25.525Z,30.33
2018-08-27T01:34:03.496Z,30.36
2018-08-27T01:34:41.413Z,30.39
2018-08-27T01:35:19.394Z,30.42
2018-08-27T01:35:58.908Z,30.42
2018-08-27T01:36:37.630Z,30.49
2018-08-27T01:37:15.777Z,30.53
2018-08-27T01:37:54.632Z,30.56
2018-08-27T01:38:33.002Z,30.54
2018-08-27T01:39:11.975Z,30.63
2018-08-27T01:39:49.941Z,30.66
2018-08-27T01:40:27.978Z,30.70
2018-08-27T01:41:05.987Z,30.74
2018-08-27T01:41:44.001Z,30.78
2018-08-27T01:42:22.034Z,30.82
2018-08-27T01:43:00.103Z,30.83
2018-08-27T01:43:38.484Z,30.88
2018-08-27T01:44:16.609Z,30.90
2018-08-27T01:44:54.686Z,30.94
2018-08-27T01:45:32.871Z,30.96
2018-08-27T01:46:10.823Z,30.95
2018-08-27T01:46:48.696Z,31.02
2018-08-27T01:47:26.704Z,31.05
2018-08-27T01:48:04.723Z,31.10
2018-08-27T01:48:43.170Z,31.13
2018-08-27T01:49:21.135Z,31.18
2018-08-27T01:49:59.385Z,31.19
2018-08-27T01:50:37.461Z,31.24
2018-08-27T01:51:15.689Z,31.31
2018-08-27T01:51:53.659Z,31.37
2018-08-27T01:52:31.694Z,31.39
2018-08-27T01:53:10.166Z,31.50
2018-08-27T01:53:48.890Z,31.54
2018-08-27T01:54:27.618Z,31.58
2018-08-27T01:55:06.212Z,31.65
2018-08-27T01:55:44.964Z,31.70
2018-08-27T01:56:23.548Z,31.74
2018-08-27T01:57:01.853Z,31.82
2018-08-27T01:57:40.202Z,31.87
2018-08-27T01:58:18.527Z,31.94
2018-08-27T01:58:56.896Z,32.02
2018-08-27T01:59:35.249Z,32.09
2018-08-27T02:00:14.113Z,32.19
2018-08-27T02:00:52.497Z,32.27
2018-08-27T02:01:30.815Z,32.35
2018-08-27T02:02:09.249Z,32.41
2018-08-27T02:02:47.374Z,32.53
2018-08-27T02:03:26.153Z,32.61
2018-08-27T02:04:04.372Z,32.67
2018-08-27T02:04:42.558Z,32.75
2018-08-27T02:05:21.066Z,32.81
2018-08-27T02:05:59.625Z,32.87
2018-08-27T02:06:38.790Z,32.94
2018-08-27T02:07:16.925Z,33.02
2018-08-27T02:07:55.150Z,33.13
2018-08-27T02:08:33.326Z,33.17
2018-08-27T02:09:12.827Z,33.28
2018-08-27T02:09:54.546Z,33.36
2018-08-27T02:10:32.864Z,33.43
2018-08-27T02:11:11.180Z,33.52
2018-08-27T02:11:49.413Z,33.62
2018-08-27T02:12:27.609Z,33.74
2018-08-27T02:13:05.911Z,33.82
2018-08-27T02:13:44.028Z,33.89
2018-08-27T02:14:22.364Z,33.99
2018-08-27T02:15:00.557Z,34.07
2018-08-27T02:15:38.748Z,34.16
2018-08-27T02:16:17.140Z,34.24
2018-08-27T02:16:55.281Z,34.32
2018-08-27T02:17:33.444Z,34.39
2018-08-27T02:18:11.696Z,34.48
2018-08-27T02:18:49.881Z,34.53
2018-08-27T02:19:28.019Z,34.61
2018-08-27T02:20:07.285Z,34.66
2018-08-27T02:20:45.557Z,34.73
2018-08-27T02:21:23.642Z,34.83
2018-08-27T02:22:07.446Z,34.87
2018-08-27T02:22:45.621Z,34.91
2018-08-27T02:23:24.896Z,34.94
2018-08-27T02:24:03.737Z,34.95
2018-08-27T02:24:41.624Z,35.00
2018-08-27T02:25:20.110Z,35.05
2018-08-27T02:25:58.139Z,35.13
2018-08-27T02:26:36.380Z,35.17
2018-08-27T02:27:14.357Z,35.20
2018-08-27T02:27:52.352Z,35.22
2018-08-27T02:28:30.449Z,35.27
2018-08-27T02:29:08.689Z,35.30
2018-08-27T02:29:46.544Z,35.34
2018-08-27T02:30:24.607Z,35.35
2018-08-27T02:31:02.540Z,35.36
2018-08-27T02:31:40.644Z,35.40
2018-08-27T02:32:22.627Z,35.47
2018-08-27T02:33:00.619Z,35.53
2018-08-27T02:33:38.529Z,35.62
2018-08-27T02:34:17.297Z,35.70
2018-08-27T02:34:55.301Z,35.79
2018-08-27T02:35:33.351Z,35.85
2018-08-27T02:36:11.371Z,35.87
2018-08-27T02:36:49.485Z,35.95
2018-08-27T02:37:27.877Z,35.96
2018-08-27T02:38:05.733Z,36.02
2018-08-27T02:38:46.639Z,36.07
2018-08-27T02:39:24.513Z,36.17
2018-08-27T02:40:02.655Z,36.24
2018-08-27T02:40:40.562Z,36.30
2018-08-27T02:41:18.588Z,36.34
2018-08-27T02:41:56.485Z,36.39
2018-08-27T02:42:34.445Z,36.42
2018-08-27T02:43:12.359Z,36.45
2018-08-27T02:43:50.495Z,36.48
2018-08-27T02:44:28.502Z,36.42
2018-08-27T02:45:06.344Z,36.47
2018-08-27T02:45:44.288Z,36.51
2018-08-27T02:46:22.251Z,36.50
2018-08-27T02:47:00.181Z,36.50
2018-08-27T02:47:38.067Z,36.56
2018-08-27T02:48:15.925Z,36.56
2018-08-27T02:48:56.061Z,36.59
2018-08-27T02:49:34.109Z,36.62
2018-08-27T02:50:12.139Z,36.65
2018-08-27T02:50:50.219Z,36.72
2018-08-27T02:51:28.146Z,36.78
2018-08-27T02:52:06.062Z,36.85
2018-08-27T02:52:44.234Z,36.87
2018-08-27T02:53:22.871Z,36.91
2018-08-27T02:54:00.746Z,36.94
2018-08-27T02:54:38.698Z,36.89
2018-08-27T02:55:17.139Z,36.89
2018-08-27T02:55:57.973Z,36.94
2018-08-27T02:56:35.887Z,36.95
2018-08-27T02:57:13.864Z,36.98
2018-08-27T02:57:51.788Z,36.94
2018-08-27T02:58:29.758Z,36.89
2018-08-27T02:59:07.674Z,36.84
2018-08-27T02:59:45.620Z,36.83
2018-08-27T03:00:23.550Z,36.78
2018-08-27T03:01:01.584Z,36.73
2018-08-27T03:01:40.024Z,36.68
2018-08-27T03:02:17.920Z,36.65
2018-08-27T03:02:56.065Z,36.69
2018-08-27T03:03:34.058Z,36.60
2018-08-27T03:04:12.188Z,36.62
2018-08-27T03:04:50.293Z,36.61
2018-08-27T03:05:28.250Z,36.59
2018-08-27T03:06:06.126Z,36.54
2018-08-27T03:06:44.097Z,36.44
2018-08-27T03:07:22.111Z,36.41
2018-08-27T03:08:00.065Z,36.37
2018-08-27T03:08:38.005Z,36.35
2018-08-27T03:09:15.951Z,36.30
2018-08-27T03:09:53.989Z,36.23
2018-08-27T03:10:32.902Z,36.15
2018-08-27T03:11:10.930Z,36.06
2018-08-27T03:11:48.933Z,35.98
2018-08-27T03:12:26.913Z,35.98
2018-08-27T03:13:04.836Z,35.99
2018-08-27T03:13:42.866Z,35.93
2018-08-27T03:14:20.868Z,35.91
2018-08-27T03:14:58.879Z,35.86
2018-08-27T03:15:36.905Z,35.84
2018-08-27T03:16:14.784Z,35.80
2018-08-27T03:16:52.745Z,35.77
2018-08-27T03:17:30.603Z,35.72
2018-08-27T03:18:08.677Z,35.69
2018-08-27T03:18:46.760Z,35.66
2018-08-27T03:19:24.694Z,35.64
2018-08-27T03:20:02.644Z,35.59
2018-08-27T03:20:40.589Z,35.58
2018-08-27T03:21:18.587Z,35.57
2018-08-27T03:21:56.592Z,35.57
2018-08-27T03:22:35.515Z,35.59
2018-08-27T03:23:13.464Z,35.63
2018-08-27T03:23:51.458Z,35.69
2018-08-27T03:24:29.441Z,35.72
2018-08-27T03:25:07.397Z,35.75
2018-08-27T03:25:45.587Z,35.78
2018-08-27T03:26:23.534Z,35.83
2018-08-27T03:27:02.237Z,35.86
2018-08-27T03:27:40.186Z,35.92
2018-08-27T03:28:18.116Z,35.97
2018-08-27T03:28:56.348Z,36.02
2018-08-27T03:29:34.349Z,36.00
2018-08-27T03:30:12.464Z,36.06
2018-08-27T03:30:50.349Z,36.11
2018-08-27T03:31:28.258Z,36.14
2018-08-27T03:32:06.268Z,36.13
2018-08-27T03:32:44.271Z,36.08
2018-08-27T03:33:23.448Z,36.08
2018-08-27T03:34:01.337Z,36.06
2018-08-27T03:34:39.205Z,36.03
2018-08-27T03:35:17.424Z,35.99
2018-08-27T03:35:55.345Z,35.98
2018-08-27T03:36:33.237Z,35.93
2018-08-27T03:37:11.162Z,35.93
2018-08-27T03:37:49.028Z,35.94
2018-08-27T03:38:26.937Z,35.93
2018-08-27T03:39:06.692Z,35.94
2018-08-27T03:39:44.728Z,35.95
2018-08-27T03:40:22.593Z,35.97
2018-08-27T03:41:00.487Z,35.99
2018-08-27T03:41:38.335Z,36.02
2018-08-27T03:42:16.508Z,36.06
2018-08-27T03:42:54.449Z,36.09
2018-08-27T03:43:32.360Z,36.11
2018-08-27T03:44:10.576Z,36.13
2018-08-27T03:44:49.384Z,36.18
2018-08-27T03:45:27.297Z,36.24
2018-08-27T03:46:05.095Z,36.23
2018-08-27T03:46:43.667Z,36.20
2018-08-27T03:47:21.543Z,36.11
2018-08-27T03:47:59.581Z,36.10
2018-08-27T03:48:37.630Z,36.11
2018-08-27T03:49:15.785Z,36.15
2018-08-27T03:49:53.710Z,36.14
2018-08-27T03:50:31.559Z,36.01
2018-08-27T03:51:09.535Z,36.03
2018-08-27T03:51:47.478Z,36.08
2018-08-27T03:52:25.539Z,36.09
2018-08-27T03:53:03.464Z,36.13
2018-08-27T03:53:42.264Z,36.16
2018-08-27T03:54:21.223Z,36.22
2018-08-27T03:54:59.082Z,36.18
2018-08-27T03:55:37.202Z,36.14
2018-08-27T03:56:15.233Z,36.24
2018-08-27T03:56:53.032Z,36.29
2018-08-27T03:57:31.035Z,36.29
2018-08-27T03:58:09.164Z,36.26
2018-08-27T03:58:47.220Z,36.17
2018-08-27T03:59:25.345Z,36.15
2018-08-27T04:00:03.397Z,36.14
2018-08-27T04:00:41.295Z,36.11
2018-08-27T04:01:19.308Z,36.16
2018-08-27T04:01:57.208Z,36.16
2018-08-27T04:02:35.105Z,36.17
2018-08-27T04:03:13.096Z,36.13
2018-08-27T04:03:51.370Z,36.09
2018-08-27T04:04:29.520Z,36.10
2018-08-27T04:05:21.361Z,35.99
2018-08-27T04:05:59.290Z,36.01
2018-08-27T04:06:37.276Z,36.02
2018-08-27T04:07:15.279Z,36.02
2018-08-27T04:07:53.306Z,35.99
2018-08-27T04:08:31.239Z,36.04
2018-08-27T04:09:11.285Z,36.04
2018-08-27T04:09:49.329Z,36.06
2018-08-27T04:10:27.233Z,36.07
2018-08-27T04:11:05.213Z,36.09
2018-08-27T04:11:43.683Z,36.10
2018-08-27T04:12:22.300Z,36.08
2018-08-27T04:13:01.133Z,36.13
2018-08-27T04:13:39.192Z,36.19
2018-08-27T04:14:17.911Z,36.22
2018-08-27T04:14:55.878Z,36.15
2018-08-27T04:15:33.943Z,36.20
2018-08-27T04:16:11.935Z,36.23
2018-08-27T04:16:49.842Z,36.27
2018-08-27T04:17:31.177Z,36.27
2018-08-27T04:18:09.288Z,36.23
2018-08-27T04:18:47.205Z,36.23
2018-08-27T04:19:25.995Z,36.22
2018-08-27T04:20:05.840Z,36.23
2018-08-27T04:20:43.821Z,36.20
2018-08-27T04:21:21.744Z,36.27
2018-08-27T04:21:59.614Z,36.27
2018-08-27T04:22:37.672Z,36.28
2018-08-27T04:23:15.487Z,36.29
2018-08-27T04:23:53.436Z,36.32
2018-08-27T04:24:31.477Z,36.31
2018-08-27T04:25:09.321Z,36.36
2018-08-27T04:25:47.318Z,36.40
2018-08-27T04:26:25.469Z,36.42
2018-08-27T04:27:03.484Z,36.42
2018-08-27T04:27:41.378Z,36.45
2018-08-27T04:28:19.354Z,36.48
2018-08-27T04:28:57.335Z,36.51
2018-08-27T04:29:36.153Z,36.49
2018-08-27T04:30:14.082Z,36.51
2018-08-27T04:30:53.784Z,36.50
2018-08-27T04:31:31.807Z,36.56
2018-08-27T04:32:09.906Z,36.58
2018-08-27T04:32:47.790Z,36.56
2018-08-27T04:33:25.824Z,36.60
2018-08-27T04:34:03.942Z,36.62
2018-08-27T04:34:41.782Z,36.63
2018-08-27T04:35:19.856Z,36.62
2018-08-27T04:35:58.184Z,36.66
2018-08-27T04:36:36.087Z,36.69
2018-08-27T04:37:14.220Z,36.74
2018-08-27T04:37:52.074Z,36.79
2018-08-27T04:38:30.142Z,36.87
2018-08-27T04:39:10.000Z,36.88
2018-08-27T04:39:47.918Z,36.91
2018-08-27T04:40:25.804Z,36.93
2018-08-27T04:41:03.726Z,36.96
2018-08-27T04:41:41.562Z,36.94
2018-08-27T04:42:19.499Z,36.95
2018-08-27T04:42:58.143Z,36.97
2018-08-27T04:43:36.065Z,36.94
2018-08-27T04:44:13.924Z,36.95
2018-08-27T04:44:51.824Z,36.88
2018-08-27T04:45:29.863Z,36.86
2018-08-27T04:46:08.691Z,36.82
2018-08-27T04:46:47.615Z,36.83
2018-08-27T04:47:25.839Z,36.86
2018-08-27T04:48:03.739Z,36.89
2018-08-27T04:48:41.686Z,36.80
2018-08-27T04:49:19.956Z,36.79
2018-08-27T04:49:57.871Z,36.83
2018-08-27T04:50:35.821Z,36.86
2018-08-27T04:51:13.693Z,36.84
2018-08-27T04:51:51.581Z,36.84
2018-08-27T04:52:29.375Z,36.84
2018-08-27T04:53:07.245Z,36.87
2018-08-27T04:53:45.245Z,36.87
2018-08-27T04:54:24.350Z,36.89
2018-08-27T04:55:02.221Z,36.90
2018-08-27T04:55:40.958Z,36.95
2018-08-27T04:56:18.819Z,36.99
2018-08-27T04:56:56.874Z,37.03
2018-08-27T04:57:34.781Z,37.07
2018-08-27T04:58:12.805Z,37.07
2018-08-27T04:58:51.856Z,37.08
2018-08-27T04:59:35.956Z,37.03
2018-08-27T05:00:17.793Z,37.00
2018-08-27T05:00:55.746Z,37.01
2018-08-27T05:01:34.089Z,37.03
2018-08-27T05:02:11.952Z,37.07
2018-08-27T05:02:50.975Z,37.05
2018-08-27T05:03:28.930Z,37.06
2018-08-27T05:04:06.937Z,37.01
2018-08-27T05:04:44.893Z,36.98
2018-08-27T05:05:22.958Z,37.00
2018-08-27T05:06:00.872Z,36.96
2018-08-27T05:06:38.845Z,36.96
2018-08-27T05:07:17.904Z,36.97
2018-08-27T05:07:55.782Z,36.97
2018-08-27T05:08:33.866Z,36.92
2018-08-27T05:09:13.107Z,36.91
2018-08-27T05:09:51.113Z,36.92
2018-08-27T05:10:29.133Z,36.89
2018-08-27T05:11:07.139Z,36.88
2018-08-27T05:11:45.093Z,36.85
2018-08-27T05:12:24.415Z,36.79
2018-08-27T05:13:02.649Z,36.77
2018-08-27T05:13:40.645Z,36.76
2018-08-27T05:14:18.675Z,36.72
2018-08-27T05:14:57.335Z,36.72
2018-08-27T05:15:35.372Z,36.69
2018-08-27T05:16:13.453Z,36.73
2018-08-27T05:16:51.515Z,36.79
2018-08-27T05:17:29.506Z,36.82
2018-08-27T05:18:07.495Z,36.87
2018-08-27T05:18:45.411Z,36.86
2018-08-27T05:19:23.294Z,36.82
2018-08-27T05:20:01.232Z,36.78
2018-08-27T05:20:39.154Z,36.70
2018-08-27T05:21:17.060Z,36.69
2018-08-27T05:21:54.915Z,36.70
2018-08-27T05:22:32.751Z,36.74
2018-08-27T05:23:10.873Z,36.72
2018-08-27T05:23:48.956Z,36.73
2018-08-27T05:24:26.875Z,36.73
2018-08-27T05:25:04.852Z,36.75
2018-08-27T05:25:42.809Z,36.84
2018-08-27T05:26:21.028Z,36.90
2018-08-27T05:26:58.966Z,36.92
2018-08-27T05:27:36.836Z,36.97
2018-08-27T05:28:14.779Z,37.03
2018-08-27T05:28:53.660Z,37.03
2018-08-27T05:29:31.530Z,36.97
2018-08-27T05:30:09.527Z,36.82
2018-08-27T05:30:47.739Z,36.84
2018-08-27T05:31:25.659Z,36.84
2018-08-27T05:32:03.855Z,36.77
2018-08-27T05:32:41.910Z,36.76
2018-08-27T05:33:19.940Z,36.80
2018-08-27T05:34:03.690Z,36.76
2018-08-27T05:34:41.698Z,36.76
2018-08-27T05:35:19.651Z,36.75
2018-08-27T05:35:57.816Z,36.76
2018-08-27T05:36:36.797Z,36.79
2018-08-27T05:37:14.766Z,36.83
2018-08-27T05:37:52.669Z,36.82
2018-08-27T05:38:31.571Z,36.84
2018-08-27T05:39:12.260Z,36.89
2018-08-27T05:39:50.097Z,36.92
2018-08-27T05:40:28.252Z,36.97
2018-08-27T05:41:06.956Z,37.00
2018-08-27T05:41:44.954Z,37.03
2018-08-27T05:42:23.896Z,37.06
2018-08-27T05:43:01.772Z,37.13
2018-08-27T05:43:39.725Z,37.16
2018-08-27T05:44:17.899Z,37.19
2018-08-27T05:44:55.832Z,37.26
2018-08-27T05:45:33.914Z,37.27
2018-08-27T05:46:11.937Z,37.26
2018-08-27T05:46:49.932Z,37.34
2018-08-27T05:47:27.787Z,37.39
2018-08-27T05:48:05.873Z,37.44
2018-08-27T05:48:43.809Z,37.46
2018-08-27T05:49:21.701Z,37.50
2018-08-27T05:49:59.873Z,37.51
2018-08-27T05:50:37.840Z,37.59
2018-08-27T05:51:15.739Z,37.57
2018-08-27T05:51:53.821Z,37.66
2018-08-27T05:52:31.850Z,37.73
2018-08-27T05:53:09.762Z,37.79
2018-08-27T05:53:47.795Z,37.83
2018-08-27T05:54:26.607Z,37.88
2018-08-27T05:55:04.828Z,37.92
2018-08-27T05:55:43.041Z,37.96
2018-08-27T05:56:20.900Z,37.99
2018-08-27T05:56:59.961Z,38.05
2018-08-27T05:57:37.981Z,38.08
2018-08-27T05:58:16.052Z,38.14
2018-08-27T05:58:53.930Z,38.15
2018-08-27T05:59:31.865Z,38.12
2018-08-27T06:00:09.849Z,38.18
2018-08-27T06:00:47.856Z,38.18
2018-08-27T06:01:26.028Z,38.19
2018-08-27T06:02:04.050Z,38.19
2018-08-27T06:02:42.048Z,38.21
2018-08-27T06:03:20.239Z,38.20
2018-08-27T06:03:58.124Z,38.21
2018-08-27T06:04:36.106Z,38.25
2018-08-27T06:05:13.991Z,38.24
2018-08-27T06:05:52.068Z,38.28
2018-08-27T06:06:30.357Z,38.30
2018-08-27T06:07:08.274Z,38.23
2018-08-27T06:07:46.193Z,38.20
2018-08-27T06:08:24.265Z,38.17
2018-08-27T06:09:02.298Z,38.06
2018-08-27T06:09:40.121Z,38.07
2018-08-27T06:10:18.100Z,38.04
2018-08-27T06:10:56.146Z,38.01
2018-08-27T06:11:34.086Z,38.01
2018-08-27T06:12:12.132Z,37.91
2018-08-27T06:12:50.122Z,37.87
2018-08-27T06:13:28.037Z,37.84
2018-08-27T06:14:05.955Z,37.81
2018-08-27T06:14:43.791Z,37.77
2018-08-27T06:15:21.743Z,37.77
2018-08-27T06:15:59.695Z,37.77
2018-08-27T06:16:37.895Z,37.77
2018-08-27T06:17:16.017Z,37.64
2018-08-27T06:17:54.121Z,37.54
2018-08-27T06:18:32.050Z,37.45
2018-08-27T06:19:10.177Z,37.36
2018-08-27T06:19:49.035Z,37.29
2018-08-27T06:20:27.924Z,37.23
2018-08-27T06:21:05.850Z,37.15
2018-08-27T06:21:43.713Z,37.08
2018-08-27T06:22:23.105Z,36.98
2018-08-27T06:23:01.456Z,36.87
2018-08-27T06:23:39.707Z,36.77
2018-08-27T06:24:18.086Z,36.69
2018-08-27T06:24:56.081Z,36.56
2018-08-27T06:25:34.005Z,36.53
2018-08-27T06:26:12.145Z,36.46
2018-08-27T06:26:50.235Z,36.42
2018-08-27T06:27:28.186Z,36.40
2018-08-27T06:28:07.413Z,36.39
2018-08-27T06:28:45.450Z,36.36
2018-08-27T06:29:23.431Z,36.36
2018-08-27T06:30:01.411Z,36.37
2018-08-27T06:30:39.759Z,36.50
2018-08-27T06:31:17.900Z,36.61
2018-08-27T06:31:56.113Z,36.64
2018-08-27T06:32:34.030Z,36.61
2018-08-27T06:33:11.950Z,36.70
2018-08-27T06:33:50.825Z,36.85
2018-08-27T06:34:28.970Z,36.83
2018-08-27T06:35:06.822Z,36.90
2018-08-27T06:35:44.869Z,36.89
2018-08-27T06:36:22.801Z,37.00
2018-08-27T06:37:00.919Z,37.08
2018-08-27T06:37:39.270Z,37.19
2018-08-27T06:38:17.248Z,37.29
2018-08-27T06:38:55.143Z,37.43
2018-08-27T06:40:36.727Z,37.70
2018-08-27T06:41:14.674Z,37.77
2018-08-27T06:41:52.631Z,37.85
2018-08-27T06:42:30.577Z,37.92
2018-08-27T06:43:08.602Z,38.00
2018-08-27T06:43:46.623Z,38.01
2018-08-27T06:44:24.540Z,38.05
2018-08-27T06:45:02.550Z,38.10
2018-08-27T06:45:40.539Z,38.10
2018-08-27T06:46:18.594Z,38.13
2018-08-27T06:46:56.386Z,38.13
2018-08-27T06:47:34.398Z,38.09
2018-08-27T06:48:12.617Z,38.03
2018-08-27T06:48:50.525Z,38.00
2018-08-27T06:49:28.621Z,38.01
2018-08-27T06:50:06.540Z,37.95
2018-08-27T06:50:44.394Z,37.97
2018-08-27T06:51:22.434Z,37.97
2018-08-27T06:52:00.552Z,38.07
2018-08-27T06:52:38.782Z,38.13
2018-08-27T06:53:17.218Z,38.20
2018-08-27T06:53:55.211Z,38.24
2018-08-27T06:54:33.617Z,38.29
2018-08-27T06:55:11.464Z,38.34
2018-08-27T06:55:49.570Z,38.40
2018-08-27T06:56:27.431Z,38.40
2018-08-27T06:57:05.347Z,38.47
2018-08-27T06:57:43.369Z,38.51
2018-08-27T06:58:22.258Z,38.59
2018-08-27T06:59:00.206Z,38.61
2018-08-27T06:59:38.145Z,38.73
2018-08-27T07:00:16.192Z,38.80
2018-08-27T07:02:02.206Z,38.95
2018-08-27T07:02:40.507Z,39.00
2018-08-27T07:03:18.475Z,39.05
2018-08-27T07:03:56.462Z,39.08
2018-08-27T07:04:34.426Z,39.07
2018-08-27T07:05:12.505Z,38.99
2018-08-27T07:05:51.480Z,38.93
2018-08-27T07:06:29.588Z,38.92
2018-08-27T07:07:07.579Z,38.80
2018-08-27T07:07:45.596Z,38.78
2018-08-27T07:08:23.629Z,38.73
2018-08-27T07:09:01.528Z,38.67
2018-08-27T07:09:39.506Z,38.68
2018-08-27T07:10:18.824Z,38.69
2018-08-27T07:10:56.956Z,38.74
2018-08-27T07:11:34.953Z,38.77
2018-08-27T07:12:12.951Z,38.83
2018-08-27T07:12:50.910Z,38.84
2018-08-27T07:13:28.831Z,38.88
2018-08-27T07:14:06.854Z,38.92
2018-08-27T07:14:44.663Z,38.95
2018-08-27T07:15:22.578Z,38.95
2018-08-27T07:16:00.527Z,38.96
2018-08-27T07:16:38.548Z,38.97
2018-08-27T07:17:16.526Z,38.96
2018-08-27T07:17:54.359Z,38.93
2018-08-27T07:18:32.221Z,38.96
2018-08-27T07:19:11.427Z,39.03
2018-08-27T07:19:49.365Z,39.10
2018-08-27T07:20:27.439Z,39.09
2018-08-27T07:21:05.458Z,39.11
2018-08-27T07:21:44.029Z,39.09
2018-08-27T07:22:22.075Z,39.07
2018-08-27T07:22:59.981Z,39.05
2018-08-27T07:23:37.818Z,39.00
2018-08-27T07:24:15.842Z,39.00
2018-08-27T07:24:54.639Z,38.99
2018-08-27T07:25:32.743Z,38.99
2018-08-27T07:26:10.669Z,39.00
2018-08-27T07:26:48.676Z,39.02
2018-08-27T07:27:26.697Z,39.01
2018-08-27T07:28:04.713Z,39.04
2018-08-27T07:28:42.834Z,39.01
2018-08-27T07:29:20.729Z,38.96
2018-08-27T07:29:58.612Z,38.92
2018-08-27T07:30:36.452Z,38.86
2018-08-27T07:31:14.402Z,38.81
2018-08-27T07:31:52.310Z,38.76
2018-08-27T07:32:30.231Z,38.73
2018-08-27T07:33:08.235Z,38.61
2018-08-27T07:33:46.086Z,38.56
2018-08-27T07:34:24.172Z,38.58
2018-08-27T07:35:02.141Z,38.51
2018-08-27T07:35:40.134Z,38.45
2018-08-27T07:36:18.439Z,38.49
2018-08-27T07:36:56.460Z,38.42
2018-08-27T07:37:34.933Z,38.38
2018-08-27T07:38:12.891Z,38.26
2018-08-27T07:38:50.915Z,38.26
2018-08-27T07:39:29.918Z,38.31
2018-08-27T07:40:08.283Z,38.35
2018-08-27T07:40:46.189Z,38.36
2018-08-27T07:41:24.272Z,38.39
2018-08-27T07:42:02.405Z,38.35
2018-08-27T07:42:40.650Z,38.35
2018-08-27T07:43:18.746Z,38.26
2018-08-27T07:43:56.637Z,38.22
2018-08-27T07:44:34.684Z,38.13
2018-08-27T07:45:13.090Z,38.11
2018-08-27T07:45:51.169Z,38.08
2018-08-27T07:46:29.216Z,38.08
2018-08-27T07:47:07.216Z,38.02
2018-08-27T07:47:45.282Z,37.89
2018-08-27T07:48:23.346Z,37.87
2018-08-27T07:49:01.300Z,37.90
2018-08-27T07:49:39.262Z,37.92
2018-08-27T07:50:17.175Z,37.97
2018-08-27T07:50:55.164Z,38.01
2018-08-27T07:51:33.055Z,38.05
2018-08-27T07:52:11.648Z,38.10
2018-08-27T07:52:49.628Z,38.10
2018-08-27T07:53:27.677Z,38.08
2018-08-27T07:54:05.652Z,38.01
2018-08-27T07:54:43.914Z,38.01
2018-08-27T07:55:21.960Z,38.04
2018-08-27T07:55:59.842Z,38.07
2018-08-27T07:56:37.866Z,38.10
2018-08-27T07:57:15.919Z,38.13
2018-08-27T07:57:55.014Z,38.17
2018-08-27T07:58:33.156Z,38.19
2018-08-27T07:59:11.210Z,38.18
2018-08-27T07:59:49.244Z,38.19
2018-08-27T08:00:28.181Z,38.23
2018-08-27T08:01:08.167Z,38.23
2018-08-27T08:01:46.268Z,38.21
2018-08-27T08:02:24.292Z,38.19
2018-08-27T08:03:02.468Z,38.19
2018-08-27T08:03:40.466Z,38.18
2018-08-27T08:04:18.536Z,38.18
2018-08-27T08:04:56.598Z,38.16
2018-08-27T08:05:34.596Z,38.17
2018-08-27T08:06:12.622Z,38.18
2018-08-27T08:06:51.202Z,38.18
2018-08-27T08:07:29.133Z,38.18
2018-08-27T08:08:07.083Z,38.13
2018-08-27T08:08:45.060Z,38.12
2018-08-27T08:09:23.957Z,38.01
2018-08-27T08:10:01.965Z,37.98
2018-08-27T08:10:39.949Z,37.91
2018-08-27T08:11:18.002Z,37.90
2018-08-27T08:11:55.994Z,37.94
2018-08-27T08:12:34.020Z,37.97
2018-08-27T08:13:12.021Z,38.02
2018-08-27T08:13:50.243Z,38.03
2018-08-27T08:14:28.363Z,38.06
2018-08-27T08:15:06.426Z,38.07